sensor_id;sensor_type;location;lat;lon;timestamp;P1;durP1;ratioP1;P2;durP2;ratioP2
51304;SDS011;37392;50.964;6.952;2023-03-04T00:01:52;122.88;;;48.40;;
51304;SDS011;37392;50.964;6.952;2023-03-04T00:04:18;115.70;;;45.58;;
51304;SDS011;37392;50.964;6.952;2023-03-04T00:06:43;119.25;;;46.22;;
51304;SDS011;37392;50.964;6.952;2023-03-04T00:09:09;118.78;;;45.38;;
51304;SDS011;37392;50.964;6.952;2023-03-04T00:11:34;121.75;;;45.90;;
51304;SDS011;37392;50.964;6.952;2023-03-04T00:14:00;122.88;;;43.85;;
51304;SDS011;37392;50.964;6.952;2023-03-04T00:16:26;120.10;;;45.20;;
51304;SDS011;37392;50.964;6.952;2023-03-04T00:18:52;112.15;;;43.92;;
51304;SDS011;37392;50.964;6.952;2023-03-04T00:21:21;112.07;;;43.53;;
51304;SDS011;37392;50.964;6.952;2023-03-04T00:23:47;104.18;;;41.72;;
51304;SDS011;37392;50.964;6.952;2023-03-04T00:26:14;105.95;;;42.72;;
51304;SDS011;37392;50.964;6.952;2023-03-04T00:28:40;100.18;;;39.95;;
51304;SDS011;37392;50.964;6.952;2023-03-04T00:31:06;104.57;;;40.95;;
51304;SDS011;37392;50.964;6.952;2023-03-04T00:33:32;103.05;;;39.50;;
51304;SDS011;37392;50.964;6.952;2023-03-04T00:35:58;102.03;;;38.80;;
51304;SDS011;37392;50.964;6.952;2023-03-04T00:38:24;104.32;;;38.63;;
51304;SDS011;37392;50.964;6.952;2023-03-04T00:40:50;98.30;;;36.53;;
51304;SDS011;37392;50.964;6.952;2023-03-04T00:43:16;85.03;;;36.33;;
51304;SDS011;37392;50.964;6.952;2023-03-04T00:45:41;82.78;;;35.95;;
51304;SDS011;37392;50.964;6.952;2023-03-04T00:48:07;90.22;;;36.28;;
51304;SDS011;37392;50.964;6.952;2023-03-04T00:50:32;97.45;;;36.97;;
51304;SDS011;37392;50.964;6.952;2023-03-04T00:52:58;75.82;;;32.40;;
51304;SDS011;37392;50.964;6.952;2023-03-04T00:55:23;87.13;;;31.65;;
51304;SDS011;37392;50.964;6.952;2023-03-04T00:57:49;81.57;;;32.00;;
51304;SDS011;37392;50.964;6.952;2023-03-04T01:00:15;78.97;;;31.90;;
51304;SDS011;37392;50.964;6.952;2023-03-04T01:02:41;85.45;;;32.28;;
51304;SDS011;37392;50.964;6.952;2023-03-04T01:05:07;69.05;;;29.85;;
51304;SDS011;37392;50.964;6.952;2023-03-04T01:07:33;73.05;;;30.75;;
51304;SDS011;37392;50.964;6.952;2023-03-04T01:09:59;66.28;;;25.88;;
51304;SDS011;37392;50.964;6.952;2023-03-04T01:12:24;57.78;;;24.50;;
51304;SDS011;37392;50.964;6.952;2023-03-04T01:14:50;60.08;;;25.65;;
51304;SDS011;37392;50.964;6.952;2023-03-04T01:17:16;75.57;;;26.90;;
51304;SDS011;37392;50.964;6.952;2023-03-04T01:19:41;58.25;;;25.08;;
51304;SDS011;37392;50.964;6.952;2023-03-04T01:22:07;62.25;;;22.80;;
51304;SDS011;37392;50.964;6.952;2023-03-04T01:24:34;49.85;;;21.98;;
51304;SDS011;37392;50.964;6.952;2023-03-04T01:27:00;57.90;;;23.08;;
51304;SDS011;37392;50.964;6.952;2023-03-04T01:29:26;56.85;;;24.70;;
51304;SDS011;37392;50.964;6.952;2023-03-04T01:31:51;56.67;;;22.17;;
51304;SDS011;37392;50.964;6.952;2023-03-04T01:34:17;64.38;;;21.23;;
51304;SDS011;37392;50.964;6.952;2023-03-04T01:36:42;48.50;;;20.73;;
51304;SDS011;37392;50.964;6.952;2023-03-04T01:39:08;55.10;;;21.27;;
51304;SDS011;37392;50.964;6.952;2023-03-04T01:41:33;54.78;;;19.73;;
51304;SDS011;37392;50.964;6.952;2023-03-04T01:43:59;42.83;;;18.98;;
51304;SDS011;37392;50.964;6.952;2023-03-04T01:46:26;50.33;;;18.35;;
51304;SDS011;37392;50.964;6.952;2023-03-04T01:48:53;45.13;;;17.25;;
51304;SDS011;37392;50.964;6.952;2023-03-04T01:51:19;38.00;;;16.42;;
51304;SDS011;37392;50.964;6.952;2023-03-04T01:53:46;42.28;;;16.30;;
51304;SDS011;37392;50.964;6.952;2023-03-04T01:56:23;43.95;;;16.27;;
51304;SDS011;37392;50.964;6.952;2023-03-04T02:01:39;42.65;;;17.38;;
51304;SDS011;37392;50.964;6.952;2023-03-04T02:04:08;37.67;;;14.60;;
51304;SDS011;37392;50.964;6.952;2023-03-04T02:06:38;36.47;;;14.35;;
51304;SDS011;37392;50.964;6.952;2023-03-04T02:09:05;44.83;;;17.80;;
51304;SDS011;37392;50.964;6.952;2023-03-04T02:11:31;37.30;;;16.25;;
51304;SDS011;37392;50.964;6.952;2023-03-04T02:13:59;42.08;;;14.20;;
51304;SDS011;37392;50.964;6.952;2023-03-04T02:16:25;40.65;;;14.55;;
51304;SDS011;37392;50.964;6.952;2023-03-04T02:19:15;46.92;;;14.68;;
51304;SDS011;37392;50.964;6.952;2023-03-04T02:21:55;32.53;;;13.05;;
51304;SDS011;37392;50.964;6.952;2023-03-04T02:27:03;27.13;;;12.60;;
51304;SDS011;37392;50.964;6.952;2023-03-04T02:29:29;35.88;;;12.20;;
51304;SDS011;37392;50.964;6.952;2023-03-04T02:31:54;32.28;;;13.57;;
51304;SDS011;37392;50.964;6.952;2023-03-04T02:34:25;28.48;;;12.23;;
51304;SDS011;37392;50.964;6.952;2023-03-04T02:36:54;41.00;;;13.07;;
51304;SDS011;37392;50.964;6.952;2023-03-04T02:39:27;36.70;;;12.20;;
51304;SDS011;37392;50.964;6.952;2023-03-04T02:42:00;35.72;;;12.07;;
51304;SDS011;37392;50.964;6.952;2023-03-04T02:46:55;37.08;;;13.18;;
51304;SDS011;37392;50.964;6.952;2023-03-04T02:49:22;40.40;;;12.68;;
51304;SDS011;37392;50.964;6.952;2023-03-04T02:51:58;40.15;;;14.10;;
51304;SDS011;37392;50.964;6.952;2023-03-04T02:54:29;32.28;;;12.45;;
51304;SDS011;37392;50.964;6.952;2023-03-04T02:56:57;30.35;;;11.52;;
51304;SDS011;37392;50.964;6.952;2023-03-04T02:59:27;38.20;;;11.63;;
51304;SDS011;37392;50.964;6.952;2023-03-04T03:01:53;28.42;;;10.48;;
51304;SDS011;37392;50.964;6.952;2023-03-04T03:04:19;31.02;;;9.65;;
51304;SDS011;37392;50.964;6.952;2023-03-04T03:06:46;27.27;;;11.73;;
51304;SDS011;37392;50.964;6.952;2023-03-04T03:09:12;31.95;;;10.23;;
51304;SDS011;37392;50.964;6.952;2023-03-04T03:11:38;36.70;;;11.65;;
51304;SDS011;37392;50.964;6.952;2023-03-04T03:14:03;30.83;;;10.52;;
51304;SDS011;37392;50.964;6.952;2023-03-04T03:16:29;29.88;;;9.95;;
51304;SDS011;37392;50.964;6.952;2023-03-04T03:18:55;23.70;;;9.43;;
51304;SDS011;37392;50.964;6.952;2023-03-04T03:21:20;32.03;;;10.68;;
51304;SDS011;37392;50.964;6.952;2023-03-04T03:23:46;35.80;;;11.07;;
51304;SDS011;37392;50.964;6.952;2023-03-04T03:26:12;41.85;;;11.70;;
51304;SDS011;37392;50.964;6.952;2023-03-04T03:28:38;26.63;;;9.52;;
51304;SDS011;37392;50.964;6.952;2023-03-04T03:31:04;28.70;;;10.18;;
51304;SDS011;37392;50.964;6.952;2023-03-04T03:33:30;43.15;;;9.68;;
51304;SDS011;37392;50.964;6.952;2023-03-04T03:35:55;42.45;;;9.30;;
51304;SDS011;37392;50.964;6.952;2023-03-04T03:38:21;23.23;;;8.60;;
51304;SDS011;37392;50.964;6.952;2023-03-04T03:40:47;26.23;;;8.48;;
51304;SDS011;37392;50.964;6.952;2023-03-04T03:43:12;35.83;;;10.13;;
51304;SDS011;37392;50.964;6.952;2023-03-04T03:45:38;36.40;;;8.20;;
51304;SDS011;37392;50.964;6.952;2023-03-04T03:48:03;40.55;;;9.35;;
51304;SDS011;37392;50.964;6.952;2023-03-04T03:50:29;29.40;;;8.40;;
51304;SDS011;37392;50.964;6.952;2023-03-04T03:52:55;22.75;;;8.63;;
51304;SDS011;37392;50.964;6.952;2023-03-04T03:55:21;35.42;;;7.32;;
51304;SDS011;37392;50.964;6.952;2023-03-04T03:57:47;30.63;;;8.65;;
51304;SDS011;37392;50.964;6.952;2023-03-04T04:00:13;34.03;;;8.10;;
51304;SDS011;37392;50.964;6.952;2023-03-04T04:02:40;25.63;;;8.15;;
51304;SDS011;37392;50.964;6.952;2023-03-04T04:05:06;25.95;;;7.60;;
51304;SDS011;37392;50.964;6.952;2023-03-04T04:07:33;46.30;;;8.93;;
51304;SDS011;37392;50.964;6.952;2023-03-04T04:10:00;31.02;;;7.15;;
51304;SDS011;37392;50.964;6.952;2023-03-04T04:12:26;40.13;;;8.38;;
51304;SDS011;37392;50.964;6.952;2023-03-04T04:14:51;38.78;;;8.95;;
51304;SDS011;37392;50.964;6.952;2023-03-04T04:17:17;36.05;;;8.95;;
51304;SDS011;37392;50.964;6.952;2023-03-04T04:19:43;38.42;;;8.60;;
51304;SDS011;37392;50.964;6.952;2023-03-04T04:22:12;33.67;;;10.70;;
51304;SDS011;37392;50.964;6.952;2023-03-04T04:24:40;34.30;;;10.07;;
51304;SDS011;37392;50.964;6.952;2023-03-04T04:27:06;42.83;;;12.60;;
51304;SDS011;37392;50.964;6.952;2023-03-04T04:29:32;30.52;;;9.30;;
51304;SDS011;37392;50.964;6.952;2023-03-04T04:31:57;44.03;;;10.25;;
51304;SDS011;37392;50.964;6.952;2023-03-04T04:34:23;26.88;;;8.13;;
51304;SDS011;37392;50.964;6.952;2023-03-04T04:36:49;26.73;;;7.28;;
51304;SDS011;37392;50.964;6.952;2023-03-04T04:39:15;36.20;;;8.15;;
51304;SDS011;37392;50.964;6.952;2023-03-04T04:41:41;33.85;;;8.40;;
51304;SDS011;37392;50.964;6.952;2023-03-04T04:44:09;32.95;;;8.82;;
51304;SDS011;37392;50.964;6.952;2023-03-04T04:46:36;30.02;;;9.25;;
51304;SDS011;37392;50.964;6.952;2023-03-04T04:49:03;24.05;;;7.43;;
51304;SDS011;37392;50.964;6.952;2023-03-04T04:51:29;24.20;;;8.27;;
51304;SDS011;37392;50.964;6.952;2023-03-04T04:53:55;30.35;;;9.70;;
51304;SDS011;37392;50.964;6.952;2023-03-04T04:56:24;46.08;;;12.10;;
51304;SDS011;37392;50.964;6.952;2023-03-04T04:58:51;44.22;;;11.98;;
51304;SDS011;37392;50.964;6.952;2023-03-04T05:01:18;31.25;;;11.40;;
51304;SDS011;37392;50.964;6.952;2023-03-04T05:03:44;42.40;;;11.57;;
51304;SDS011;37392;50.964;6.952;2023-03-04T05:06:11;53.63;;;17.95;;
51304;SDS011;37392;50.964;6.952;2023-03-04T05:08:37;59.15;;;16.92;;
51304;SDS011;37392;50.964;6.952;2023-03-04T05:11:03;52.50;;;15.45;;
51304;SDS011;37392;50.964;6.952;2023-03-04T05:13:30;67.45;;;19.17;;
51304;SDS011;37392;50.964;6.952;2023-03-04T05:15:56;65.13;;;22.58;;
51304;SDS011;37392;50.964;6.952;2023-03-04T05:18:23;60.85;;;21.98;;
51304;SDS011;37392;50.964;6.952;2023-03-04T05:20:50;61.25;;;24.65;;
51304;SDS011;37392;50.964;6.952;2023-03-04T05:23:18;60.95;;;22.73;;
51304;SDS011;37392;50.964;6.952;2023-03-04T05:25:44;59.33;;;23.38;;
51304;SDS011;37392;50.964;6.952;2023-03-04T05:28:10;57.10;;;21.73;;
51304;SDS011;37392;50.964;6.952;2023-03-04T05:30:37;62.35;;;23.25;;
51304;SDS011;37392;50.964;6.952;2023-03-04T05:33:04;63.53;;;22.88;;
51304;SDS011;37392;50.964;6.952;2023-03-04T05:35:31;59.67;;;23.63;;
51304;SDS011;37392;50.964;6.952;2023-03-04T05:37:56;58.75;;;21.67;;
51304;SDS011;37392;50.964;6.952;2023-03-04T05:40:22;61.72;;;21.48;;
51304;SDS011;37392;50.964;6.952;2023-03-04T05:42:49;61.22;;;20.73;;
51304;SDS011;37392;50.964;6.952;2023-03-04T05:45:15;45.95;;;18.58;;
51304;SDS011;37392;50.964;6.952;2023-03-04T05:47:41;52.25;;;16.40;;
51304;SDS011;37392;50.964;6.952;2023-03-04T05:50:06;54.10;;;18.15;;
51304;SDS011;37392;50.964;6.952;2023-03-04T05:52:33;51.17;;;15.82;;
51304;SDS011;37392;50.964;6.952;2023-03-04T05:54:58;30.88;;;13.75;;
51304;SDS011;37392;50.964;6.952;2023-03-04T05:57:24;48.28;;;14.07;;
51304;SDS011;37392;50.964;6.952;2023-03-04T05:59:49;36.33;;;12.57;;
51304;SDS011;37392;50.964;6.952;2023-03-04T06:02:15;43.65;;;11.65;;
51304;SDS011;37392;50.964;6.952;2023-03-04T06:04:40;32.83;;;11.05;;
51304;SDS011;37392;50.964;6.952;2023-03-04T06:07:06;30.52;;;8.77;;
51304;SDS011;37392;50.964;6.952;2023-03-04T06:09:31;25.60;;;8.95;;
51304;SDS011;37392;50.964;6.952;2023-03-04T06:11:57;31.63;;;9.20;;
51304;SDS011;37392;50.964;6.952;2023-03-04T06:14:23;22.95;;;7.80;;
51304;SDS011;37392;50.964;6.952;2023-03-04T06:16:48;22.33;;;7.82;;
51304;SDS011;37392;50.964;6.952;2023-03-04T06:19:14;30.30;;;6.90;;
51304;SDS011;37392;50.964;6.952;2023-03-04T06:21:39;36.55;;;9.43;;
51304;SDS011;37392;50.964;6.952;2023-03-04T06:24:05;21.40;;;6.20;;
51304;SDS011;37392;50.964;6.952;2023-03-04T06:26:31;34.55;;;6.05;;
51304;SDS011;37392;50.964;6.952;2023-03-04T06:28:56;27.92;;;5.55;;
51304;SDS011;37392;50.964;6.952;2023-03-04T06:31:22;29.95;;;7.38;;
51304;SDS011;37392;50.964;6.952;2023-03-04T06:33:47;35.60;;;9.02;;
51304;SDS011;37392;50.964;6.952;2023-03-04T06:36:13;29.50;;;4.90;;
51304;SDS011;37392;50.964;6.952;2023-03-04T06:38:38;19.77;;;5.00;;
51304;SDS011;37392;50.964;6.952;2023-03-04T06:41:05;18.40;;;5.47;;
51304;SDS011;37392;50.964;6.952;2023-03-04T06:43:33;23.00;;;5.78;;
51304;SDS011;37392;50.964;6.952;2023-03-04T06:45:59;36.05;;;7.25;;
51304;SDS011;37392;50.964;6.952;2023-03-04T06:48:24;27.90;;;5.88;;
51304;SDS011;37392;50.964;6.952;2023-03-04T06:50:50;25.10;;;7.25;;
51304;SDS011;37392;50.964;6.952;2023-03-04T06:53:15;25.08;;;7.53;;
51304;SDS011;37392;50.964;6.952;2023-03-04T06:55:41;32.72;;;8.90;;
51304;SDS011;37392;50.964;6.952;2023-03-04T06:58:06;42.38;;;9.10;;
51304;SDS011;37392;50.964;6.952;2023-03-04T07:00:32;28.42;;;8.50;;
51304;SDS011;37392;50.964;6.952;2023-03-04T07:02:58;24.52;;;7.15;;
51304;SDS011;37392;50.964;6.952;2023-03-04T07:05:24;29.58;;;6.75;;
51304;SDS011;37392;50.964;6.952;2023-03-04T07:07:49;20.30;;;5.13;;
51304;SDS011;37392;50.964;6.952;2023-03-04T07:10:18;23.08;;;5.47;;
51304;SDS011;37392;50.964;6.952;2023-03-04T07:12:44;19.85;;;4.18;;
51304;SDS011;37392;50.964;6.952;2023-03-04T07:15:10;27.00;;;5.95;;
51304;SDS011;37392;50.964;6.952;2023-03-04T07:17:36;38.47;;;6.38;;
51304;SDS011;37392;50.964;6.952;2023-03-04T07:20:02;21.95;;;5.82;;
51304;SDS011;37392;50.964;6.952;2023-03-04T07:22:28;20.73;;;6.30;;
51304;SDS011;37392;50.964;6.952;2023-03-04T07:24:53;24.60;;;6.47;;
51304;SDS011;37392;50.964;6.952;2023-03-04T07:27:20;16.85;;;4.35;;
51304;SDS011;37392;50.964;6.952;2023-03-04T07:29:46;18.35;;;4.78;;
51304;SDS011;37392;50.964;6.952;2023-03-04T07:32:11;22.58;;;5.82;;
51304;SDS011;37392;50.964;6.952;2023-03-04T07:34:37;24.23;;;4.20;;
51304;SDS011;37392;50.964;6.952;2023-03-04T07:37:03;17.70;;;6.07;;
51304;SDS011;37392;50.964;6.952;2023-03-04T07:39:28;22.98;;;5.40;;
51304;SDS011;37392;50.964;6.952;2023-03-04T07:41:54;31.25;;;5.13;;
51304;SDS011;37392;50.964;6.952;2023-03-04T07:44:20;17.92;;;4.80;;
51304;SDS011;37392;50.964;6.952;2023-03-04T07:46:46;29.65;;;5.43;;
51304;SDS011;37392;50.964;6.952;2023-03-04T07:49:12;27.25;;;6.32;;
51304;SDS011;37392;50.964;6.952;2023-03-04T07:51:38;28.50;;;5.80;;
51304;SDS011;37392;50.964;6.952;2023-03-04T07:54:04;29.52;;;6.28;;
51304;SDS011;37392;50.964;6.952;2023-03-04T07:56:31;25.42;;;6.28;;
51304;SDS011;37392;50.964;6.952;2023-03-04T07:58:58;24.73;;;6.68;;
51304;SDS011;37392;50.964;6.952;2023-03-04T08:01:31;17.92;;;5.43;;
51304;SDS011;37392;50.964;6.952;2023-03-04T08:04:00;19.27;;;4.95;;
51304;SDS011;37392;50.964;6.952;2023-03-04T08:06:27;20.13;;;5.30;;
51304;SDS011;37392;50.964;6.952;2023-03-04T08:08:56;21.25;;;6.00;;
51304;SDS011;37392;50.964;6.952;2023-03-04T08:11:28;25.70;;;4.38;;
51304;SDS011;37392;50.964;6.952;2023-03-04T08:13:54;16.05;;;4.22;;
51304;SDS011;37392;50.964;6.952;2023-03-04T08:16:21;20.23;;;5.43;;
51304;SDS011;37392;50.964;6.952;2023-03-04T08:18:49;20.85;;;4.32;;
51304;SDS011;37392;50.964;6.952;2023-03-04T08:21:17;21.42;;;4.90;;
51304;SDS011;37392;50.964;6.952;2023-03-04T08:23:45;13.30;;;4.10;;
51304;SDS011;37392;50.964;6.952;2023-03-04T08:26:13;17.75;;;4.63;;
51304;SDS011;37392;50.964;6.952;2023-03-04T08:28:49;22.05;;;4.13;;
51304;SDS011;37392;50.964;6.952;2023-03-04T08:31:15;25.08;;;4.55;;
51304;SDS011;37392;50.964;6.952;2023-03-04T08:33:43;26.80;;;3.92;;
51304;SDS011;37392;50.964;6.952;2023-03-04T08:36:09;21.60;;;4.00;;
51304;SDS011;37392;50.964;6.952;2023-03-04T08:38:35;21.95;;;6.38;;
51304;SDS011;37392;50.964;6.952;2023-03-04T08:41:02;20.35;;;4.30;;
51304;SDS011;37392;50.964;6.952;2023-03-04T08:43:28;25.60;;;5.22;;
51304;SDS011;37392;50.964;6.952;2023-03-04T08:45:55;22.15;;;5.50;;
51304;SDS011;37392;50.964;6.952;2023-03-04T08:48:21;17.10;;;3.15;;
51304;SDS011;37392;50.964;6.952;2023-03-04T08:50:48;11.43;;;3.28;;
51304;SDS011;37392;50.964;6.952;2023-03-04T08:53:15;23.52;;;3.85;;
51304;SDS011;37392;50.964;6.952;2023-03-04T08:55:42;20.00;;;3.30;;
51304;SDS011;37392;50.964;6.952;2023-03-04T08:58:17;14.25;;;4.03;;
51304;SDS011;37392;50.964;6.952;2023-03-04T09:00:47;11.70;;;3.30;;
51304;SDS011;37392;50.964;6.952;2023-03-04T09:03:15;23.30;;;3.30;;
51304;SDS011;37392;50.964;6.952;2023-03-04T09:05:43;8.95;;;2.88;;
51304;SDS011;37392;50.964;6.952;2023-03-04T09:08:11;18.52;;;3.30;;
51304;SDS011;37392;50.964;6.952;2023-03-04T09:10:37;23.20;;;3.80;;
51304;SDS011;37392;50.964;6.952;2023-03-04T09:13:03;19.70;;;5.25;;
51304;SDS011;37392;50.964;6.952;2023-03-04T09:15:30;24.13;;;6.10;;
51304;SDS011;37392;50.964;6.952;2023-03-04T09:18:00;17.30;;;5.30;;
51304;SDS011;37392;50.964;6.952;2023-03-04T09:20:27;12.00;;;4.03;;
51304;SDS011;37392;50.964;6.952;2023-03-04T09:22:54;20.50;;;4.35;;
51304;SDS011;37392;50.964;6.952;2023-03-04T09:25:20;8.25;;;3.17;;
51304;SDS011;37392;50.964;6.952;2023-03-04T09:27:45;21.33;;;4.20;;
51304;SDS011;37392;50.964;6.952;2023-03-04T09:30:11;24.10;;;4.65;;
51304;SDS011;37392;50.964;6.952;2023-03-04T09:32:40;16.73;;;4.32;;
51304;SDS011;37392;50.964;6.952;2023-03-04T09:35:06;14.75;;;4.25;;
51304;SDS011;37392;50.964;6.952;2023-03-04T09:37:33;14.48;;;4.38;;
51304;SDS011;37392;50.964;6.952;2023-03-04T09:39:59;13.43;;;2.70;;
51304;SDS011;37392;50.964;6.952;2023-03-04T09:42:42;15.98;;;3.00;;
51304;SDS011;37392;50.964;6.952;2023-03-04T09:45:22;15.85;;;2.47;;
51304;SDS011;37392;50.964;6.952;2023-03-04T09:48:02;15.15;;;2.90;;
51304;SDS011;37392;50.964;6.952;2023-03-04T09:50:30;16.52;;;3.78;;
51304;SDS011;37392;50.964;6.952;2023-03-04T09:56:01;26.33;;;4.78;;
51304;SDS011;37392;50.964;6.952;2023-03-04T09:59:04;16.40;;;3.58;;
51304;SDS011;37392;50.964;6.952;2023-03-04T10:01:57;27.38;;;4.57;;
51304;SDS011;37392;50.964;6.952;2023-03-04T10:06:59;17.35;;;3.30;;
51304;SDS011;37392;50.964;6.952;2023-03-04T10:09:50;14.82;;;3.10;;
51304;SDS011;37392;50.964;6.952;2023-03-04T10:12:32;12.23;;;3.58;;
51304;SDS011;37392;50.964;6.952;2023-03-04T10:15:02;11.10;;;3.45;;
51304;SDS011;37392;50.964;6.952;2023-03-04T10:17:35;20.02;;;3.88;;
51304;SDS011;37392;50.964;6.952;2023-03-04T10:20:10;17.90;;;5.07;;
51304;SDS011;37392;50.964;6.952;2023-03-04T10:22:45;26.48;;;4.38;;
51304;SDS011;37392;50.964;6.952;2023-03-04T10:28:11;19.05;;;5.00;;
51304;SDS011;37392;50.964;6.952;2023-03-04T10:30:45;21.88;;;3.90;;
51304;SDS011;37392;50.964;6.952;2023-03-04T10:33:30;9.30;;;2.80;;
51304;SDS011;37392;50.964;6.952;2023-03-04T10:36:50;12.30;;;2.60;;
51304;SDS011;37392;50.964;6.952;2023-03-04T10:41:30;10.30;;;2.77;;
51304;SDS011;37392;50.964;6.952;2023-03-04T10:46:40;14.75;;;2.95;;
51304;SDS011;37392;50.964;6.952;2023-03-04T10:49:12;7.45;;;2.35;;
51304;SDS011;37392;50.964;6.952;2023-03-04T10:51:42;10.40;;;4.32;;
51304;SDS011;37392;50.964;6.952;2023-03-04T10:54:15;8.63;;;2.53;;
51304;SDS011;37392;50.964;6.952;2023-03-04T10:57:18;12.63;;;2.70;;
51304;SDS011;37392;50.964;6.952;2023-03-04T11:02:51;8.63;;;2.70;;
51304;SDS011;37392;50.964;6.952;2023-03-04T11:06:04;20.70;;;3.45;;
51304;SDS011;37392;50.964;6.952;2023-03-04T11:08:37;13.95;;;4.78;;
51304;SDS011;37392;50.964;6.952;2023-03-04T11:11:20;8.45;;;3.22;;
51304;SDS011;37392;50.964;6.952;2023-03-04T11:13:57;15.48;;;3.20;;
51304;SDS011;37392;50.964;6.952;2023-03-04T11:16:34;16.17;;;4.10;;
51304;SDS011;37392;50.964;6.952;2023-03-04T11:19:04;16.23;;;3.17;;
51304;SDS011;37392;50.964;6.952;2023-03-04T11:21:38;16.02;;;3.42;;
51304;SDS011;37392;50.964;6.952;2023-03-04T11:24:07;18.05;;;4.45;;
51304;SDS011;37392;50.964;6.952;2023-03-04T11:26:40;15.25;;;2.97;;
51304;SDS011;37392;50.964;6.952;2023-03-04T11:29:17;14.88;;;3.80;;
51304;SDS011;37392;50.964;6.952;2023-03-04T11:34:56;13.38;;;2.50;;
51304;SDS011;37392;50.964;6.952;2023-03-04T11:37:46;13.52;;;2.70;;
51304;SDS011;37392;50.964;6.952;2023-03-04T11:43:06;20.98;;;3.25;;
51304;SDS011;37392;50.964;6.952;2023-03-04T11:59:42;10.10;;;2.60;;
51304;SDS011;37392;50.964;6.952;2023-03-04T12:02:57;17.95;;;2.72;;
51304;SDS011;37392;50.964;6.952;2023-03-04T12:08:56;8.75;;;2.45;;
51304;SDS011;37392;50.964;6.952;2023-03-04T12:14:47;10.45;;;2.60;;
51304;SDS011;37392;50.964;6.952;2023-03-04T12:17:40;9.38;;;3.75;;
51304;SDS011;37392;50.964;6.952;2023-03-04T12:35:22;11.45;;;3.05;;
51304;SDS011;37392;50.964;6.952;2023-03-04T12:46:41;8.50;;;2.33;;
51304;SDS011;37392;50.964;6.952;2023-03-04T12:52:13;6.35;;;1.90;;
51304;SDS011;37392;50.964;6.952;2023-03-04T12:54:51;11.27;;;3.10;;
51304;SDS011;37392;50.964;6.952;2023-03-04T12:57:26;11.85;;;3.97;;
51304;SDS011;37392;50.964;6.952;2023-03-04T13:22:28;4.90;;;1.88;;
51304;SDS011;37392;50.964;6.952;2023-03-04T13:24:55;4.20;;;1.50;;
51304;SDS011;37392;50.964;6.952;2023-03-04T13:43:58;3.65;;;2.03;;
51304;SDS011;37392;50.964;6.952;2023-03-04T13:46:47;7.97;;;2.22;;
51304;SDS011;37392;50.964;6.952;2023-03-04T13:49:15;4.55;;;2.30;;
51304;SDS011;37392;50.964;6.952;2023-03-04T13:51:47;2.67;;;1.83;;
51304;SDS011;37392;50.964;6.952;2023-03-04T14:02:19;8.10;;;2.40;;
51304;SDS011;37392;50.964;6.952;2023-03-04T14:07:25;8.63;;;1.75;;
51304;SDS011;37392;50.964;6.952;2023-03-04T14:09:58;2.05;;;1.50;;
51304;SDS011;37392;50.964;6.952;2023-03-04T14:12:33;5.75;;;2.42;;
51304;SDS011;37392;50.964;6.952;2023-03-04T14:17:39;10.10;;;2.30;;
51304;SDS011;37392;50.964;6.952;2023-03-04T14:22:58;4.43;;;2.25;;
51304;SDS011;37392;50.964;6.952;2023-03-04T14:25:33;10.48;;;3.45;;
51304;SDS011;37392;50.964;6.952;2023-03-04T14:28:11;9.55;;;2.05;;
51304;SDS011;37392;50.964;6.952;2023-03-04T14:30:40;5.18;;;2.03;;
51304;SDS011;37392;50.964;6.952;2023-03-04T14:33:18;7.22;;;2.38;;
51304;SDS011;37392;50.964;6.952;2023-03-04T14:38:23;3.28;;;1.98;;
51304;SDS011;37392;50.964;6.952;2023-03-04T14:43:24;5.38;;;1.60;;
51304;SDS011;37392;50.964;6.952;2023-03-04T14:45:59;9.68;;;3.28;;
51304;SDS011;37392;50.964;6.952;2023-03-04T14:48:27;7.50;;;2.17;;
51304;SDS011;37392;50.964;6.952;2023-03-04T14:50:57;9.27;;;3.38;;
51304;SDS011;37392;50.964;6.952;2023-03-04T14:53:26;8.70;;;1.58;;
51304;SDS011;37392;50.964;6.952;2023-03-04T14:55:56;10.75;;;2.90;;
51304;SDS011;37392;50.964;6.952;2023-03-04T14:58:30;14.80;;;4.38;;
51304;SDS011;37392;50.964;6.952;2023-03-04T15:03:53;5.97;;;2.17;;
51304;SDS011;37392;50.964;6.952;2023-03-04T15:06:32;8.10;;;2.38;;
51304;SDS011;37392;50.964;6.952;2023-03-04T15:09:02;5.60;;;2.92;;
51304;SDS011;37392;50.964;6.952;2023-03-04T15:11:31;5.85;;;2.08;;
51304;SDS011;37392;50.964;6.952;2023-03-04T15:25:15;7.38;;;1.98;;
51304;SDS011;37392;50.964;6.952;2023-03-04T15:27:42;22.25;;;3.70;;
51304;SDS011;37392;50.964;6.952;2023-03-04T15:30:16;86.10;;;9.10;;
51304;SDS011;37392;50.964;6.952;2023-03-04T15:32:49;20.75;;;3.85;;
51304;SDS011;37392;50.964;6.952;2023-03-04T15:35:16;10.65;;;3.08;;
51304;SDS011;37392;50.964;6.952;2023-03-04T15:37:44;23.15;;;3.92;;
51304;SDS011;37392;50.964;6.952;2023-03-04T15:43:01;18.48;;;3.53;;
51304;SDS011;37392;50.964;6.952;2023-03-04T15:45:29;6.15;;;1.88;;
51304;SDS011;37392;50.964;6.952;2023-03-04T15:48:12;16.77;;;3.92;;
51304;SDS011;37392;50.964;6.952;2023-03-04T15:50:41;8.63;;;3.40;;
51304;SDS011;37392;50.964;6.952;2023-03-04T15:56:23;8.70;;;3.63;;
51304;SDS011;37392;50.964;6.952;2023-03-04T15:58:54;9.40;;;3.60;;
51304;SDS011;37392;50.964;6.952;2023-03-04T16:01:23;9.15;;;3.38;;
51304;SDS011;37392;50.964;6.952;2023-03-04T16:03:52;10.02;;;2.88;;
51304;SDS011;37392;50.964;6.952;2023-03-04T16:06:18;8.60;;;3.22;;
51304;SDS011;37392;50.964;6.952;2023-03-04T16:08:47;7.43;;;3.65;;
51304;SDS011;37392;50.964;6.952;2023-03-04T16:11:15;23.13;;;5.13;;
51304;SDS011;37392;50.964;6.952;2023-03-04T16:13:49;10.68;;;3.70;;
51304;SDS011;37392;50.964;6.952;2023-03-04T16:16:16;13.07;;;3.63;;
51304;SDS011;37392;50.964;6.952;2023-03-04T16:18:41;7.97;;;2.65;;
51304;SDS011;37392;50.964;6.952;2023-03-04T16:21:11;10.35;;;3.42;;
51304;SDS011;37392;50.964;6.952;2023-03-04T16:23:41;9.38;;;3.17;;
51304;SDS011;37392;50.964;6.952;2023-03-04T16:26:14;9.13;;;3.17;;
51304;SDS011;37392;50.964;6.952;2023-03-04T16:28:42;18.05;;;7.30;;
51304;SDS011;37392;50.964;6.952;2023-03-04T16:31:09;12.07;;;3.42;;
51304;SDS011;37392;50.964;6.952;2023-03-04T16:33:37;10.65;;;4.30;;
51304;SDS011;37392;50.964;6.952;2023-03-04T16:36:03;12.52;;;3.53;;
51304;SDS011;37392;50.964;6.952;2023-03-04T16:38:47;10.95;;;4.53;;
51304;SDS011;37392;50.964;6.952;2023-03-04T16:41:15;7.03;;;3.55;;
51304;SDS011;37392;50.964;6.952;2023-03-04T16:43:51;12.68;;;5.15;;
51304;SDS011;37392;50.964;6.952;2023-03-04T16:46:17;10.75;;;4.32;;
51304;SDS011;37392;50.964;6.952;2023-03-04T16:48:43;15.30;;;6.05;;
51304;SDS011;37392;50.964;6.952;2023-03-04T16:51:11;16.42;;;6.30;;
51304;SDS011;37392;50.964;6.952;2023-03-04T16:53:43;15.57;;;5.28;;
51304;SDS011;37392;50.964;6.952;2023-03-04T16:56:17;14.80;;;5.35;;
51304;SDS011;37392;50.964;6.952;2023-03-04T16:58:43;17.30;;;6.28;;
51304;SDS011;37392;50.964;6.952;2023-03-04T17:01:21;15.25;;;5.05;;
51304;SDS011;37392;50.964;6.952;2023-03-04T17:03:49;17.70;;;6.45;;
51304;SDS011;37392;50.964;6.952;2023-03-04T17:09:16;9.55;;;4.57;;
51304;SDS011;37392;50.964;6.952;2023-03-04T17:11:45;12.38;;;4.85;;
51304;SDS011;37392;50.964;6.952;2023-03-04T17:14:21;20.30;;;4.45;;
51304;SDS011;37392;50.964;6.952;2023-03-04T17:16:47;12.73;;;4.40;;
51304;SDS011;37392;50.964;6.952;2023-03-04T17:19:13;14.13;;;5.15;;
51304;SDS011;37392;50.964;6.952;2023-03-04T17:21:39;13.48;;;4.40;;
51304;SDS011;37392;50.964;6.952;2023-03-04T17:24:05;13.80;;;5.20;;